createdAt,value
2018-06-14T00:00:18.011Z,99.20
2018-06-14T00:01:21.342Z,99.20
2018-06-14T00:02:24.847Z,99.00
2018-06-14T00:03:28.219Z,99.10
2018-06-14T00:04:31.563Z,99.20
2018-06-14T00:05:34.900Z,99.40
2018-06-14T00:07:42.080Z,99.50
2018-06-14T00:09:48.527Z,99.50
2018-06-14T00:10:51.857Z,99.80
2018-06-14T00:11:55.176Z,99.60
2018-06-14T00:12:58.536Z,99.60
2018-06-14T00:14:01.909Z,99.90
2018-06-14T00:15:06.191Z,99.70
2018-06-14T00:16:09.567Z,99.60
2018-06-14T00:17:12.886Z,99.90
2018-06-14T00:18:16.257Z,99.70
2018-06-14T00:19:19.583Z,99.60
2018-06-14T00:20:22.956Z,99.60
2018-06-14T00:21:26.286Z,99.50
2018-06-14T00:22:29.760Z,99.30
2018-06-14T00:23:33.115Z,99.20
2018-06-14T00:24:36.462Z,99.30
2018-06-14T00:25:39.809Z,99.20
2018-06-14T00:26:43.139Z,99.20
2018-06-14T00:27:46.716Z,99.40
2018-06-14T00:28:50.035Z,99.40
2018-06-14T00:29:54.262Z,99.30
2018-06-14T00:30:57.635Z,99.70
2018-06-14T00:32:00.956Z,99.30
2018-06-14T00:33:04.331Z,99.20
2018-06-14T00:34:07.667Z,99.60
2018-06-14T00:35:11.015Z,99.60
2018-06-14T00:36:14.435Z,99.70
2018-06-14T00:37:17.765Z,99.90
2018-06-14T00:38:21.100Z,99.90
2018-06-14T00:39:24.433Z,99.90
2018-06-14T00:40:27.780Z,99.90
2018-06-14T00:41:31.161Z,99.80
2018-06-14T00:42:34.516Z,99.70
2018-06-14T00:43:37.907Z,99.80
2018-06-14T00:44:41.255Z,99.80
2018-06-14T00:45:44.590Z,99.80
2018-06-14T00:46:47.927Z,99.90
2018-06-14T00:47:51.311Z,99.90
2018-06-14T00:48:54.799Z,99.80
2018-06-14T00:49:58.156Z,99.90
2018-06-14T00:51:01.480Z,99.70
2018-06-14T00:52:04.804Z,99.80
2018-06-14T00:53:08.179Z,99.80
2018-06-14T00:54:11.496Z,99.90
2018-06-14T00:55:14.811Z,99.90
2018-06-14T00:56:18.138Z,99.90
2018-06-14T00:57:26.340Z,99.90
2018-06-14T00:58:29.713Z,99.70
2018-06-14T00:59:33.034Z,99.90
2018-06-14T01:00:36.412Z,99.90
2018-06-14T01:01:39.742Z,99.90
2018-06-14T01:02:43.075Z,99.90
2018-06-14T01:03:46.624Z,99.90
2018-06-14T01:04:50.241Z,99.90
2018-06-14T01:05:53.550Z,99.90
2018-06-14T01:06:56.912Z,99.90
2018-06-14T01:08:00.229Z,99.90
2018-06-14T01:09:05.635Z,99.90
2018-06-14T01:10:09.019Z,99.90
2018-06-14T01:11:12.331Z,99.90
2018-06-14T01:12:15.696Z,99.90
2018-06-14T01:14:22.093Z,99.90
2018-06-14T01:15:25.428Z,99.90
2018-06-14T01:16:28.740Z,99.90
2018-06-14T01:17:32.141Z,99.90
2018-06-14T01:18:35.510Z,99.90
2018-06-14T01:20:41.997Z,99.90
2018-06-14T01:21:45.361Z,99.90
2018-06-14T01:22:48.891Z,99.90
2018-06-14T01:23:52.211Z,99.90
2018-06-14T01:24:55.539Z,99.90
2018-06-14T01:25:58.903Z,99.90
2018-06-14T01:27:06.464Z,99.90
2018-06-14T01:28:09.814Z,99.90
2018-06-14T01:29:13.154Z,99.90
2018-06-14T01:30:16.476Z,99.90
2018-06-14T01:31:19.818Z,99.90
2018-06-14T01:32:23.158Z,99.90
2018-06-14T01:33:26.513Z,99.90
2018-06-14T01:34:29.835Z,99.90
2018-06-14T01:35:33.155Z,99.90
2018-06-14T01:36:36.483Z,99.90
2018-06-14T01:37:51.293Z,99.90
2018-06-14T01:38:54.640Z,99.90
2018-06-14T01:39:57.987Z,99.90
2018-06-14T01:41:01.323Z,99.90
2018-06-14T01:42:04.680Z,99.90
2018-06-14T01:43:08.022Z,99.90
2018-06-14T01:44:11.364Z,99.90
2018-06-14T01:45:14.697Z,99.90
2018-06-14T01:46:18.033Z,99.90
2018-06-14T01:47:21.363Z,99.90
2018-06-14T01:48:24.726Z,99.90
2018-06-14T01:49:28.047Z,99.90
2018-06-14T01:50:31.366Z,99.90
2018-06-14T01:51:34.729Z,99.90
2018-06-14T01:52:38.066Z,99.90
2018-06-14T01:53:41.391Z,99.90
2018-06-14T01:54:44.784Z,99.90
2018-06-14T01:55:48.152Z,99.90
2018-06-14T01:57:54.530Z,99.90
2018-06-14T01:58:57.843Z,99.90
2018-06-14T02:00:01.160Z,99.90
2018-06-14T02:01:04.514Z,99.90
2018-06-14T02:02:07.831Z,99.90
2018-06-14T02:03:11.164Z,99.90
2018-06-14T02:04:14.514Z,99.90
2018-06-14T02:52:36.731Z,99.90
2018-06-14T02:53:40.115Z,99.90
2018-06-14T02:54:43.484Z,99.90
2018-06-14T02:55:47.555Z,99.90
2018-06-14T02:56:50.896Z,99.90
2018-06-14T02:57:54.301Z,99.90
2018-06-14T02:58:57.626Z,99.90
2018-06-14T03:00:00.988Z,99.90
2018-06-14T03:01:04.343Z,99.90
2018-06-14T03:02:07.958Z,99.90
2018-06-14T03:03:11.328Z,99.90
2018-06-14T03:04:14.691Z,99.90
2018-06-14T03:05:18.035Z,99.90
2018-06-14T03:06:21.365Z,99.90
2018-06-14T03:07:30.190Z,99.90
2018-06-14T03:08:33.543Z,99.90
2018-06-14T03:09:36.916Z,99.90
2018-06-14T03:10:40.232Z,99.90
2018-06-14T03:11:43.552Z,99.90
2018-06-14T03:12:47.119Z,99.90
2018-06-14T03:13:50.451Z,99.90
2018-06-14T03:14:54.032Z,99.90
2018-06-14T03:15:57.351Z,99.90
2018-06-14T03:17:00.742Z,99.90
2018-06-14T03:18:04.085Z,99.90
2018-06-14T03:19:07.468Z,99.90
2018-06-14T03:20:10.846Z,99.90
2018-06-14T03:21:14.212Z,99.90
2018-06-14T03:22:17.633Z,99.90
2018-06-14T03:23:20.948Z,99.90
2018-06-14T03:24:24.295Z,99.90
2018-06-14T03:25:27.612Z,99.90
2018-06-14T03:26:30.980Z,99.90
2018-06-14T03:27:34.298Z,99.90
2018-06-14T03:28:37.635Z,99.90
2018-06-14T03:29:41.346Z,99.90
2018-06-14T03:30:51.032Z,99.90
2018-06-14T03:31:54.592Z,99.90
2018-06-14T03:32:57.920Z,99.90
2018-06-14T03:34:01.299Z,99.90
2018-06-14T03:36:07.723Z,99.90
2018-06-14T03:37:11.077Z,99.90
2018-06-14T03:38:14.403Z,99.90
2018-06-14T03:39:17.770Z,99.90
2018-06-14T03:40:21.146Z,99.90
2018-06-14T03:41:24.516Z,99.90
2018-06-14T03:42:27.841Z,99.90
2018-06-14T03:43:31.167Z,99.90
2018-06-14T03:44:35.754Z,99.90
2018-06-14T03:45:39.106Z,99.90
2018-06-14T03:46:42.459Z,99.90
2018-06-14T03:47:46.747Z,99.90
2018-06-14T03:48:50.079Z,99.90
2018-06-14T03:49:53.440Z,99.90
2018-06-14T03:50:56.760Z,99.90
2018-06-14T03:52:00.197Z,99.90
2018-06-14T03:53:03.481Z,99.90
2018-06-14T03:54:06.841Z,99.90
2018-06-14T03:55:10.212Z,99.90
2018-06-14T03:56:13.582Z,99.90
2018-06-14T03:57:16.909Z,99.90
2018-06-14T03:58:20.277Z,99.90
2018-06-14T03:59:23.659Z,99.90
2018-06-14T04:00:27.003Z,99.90
2018-06-14T04:01:30.329Z,99.90
2018-06-14T04:02:33.671Z,99.90
2018-06-14T04:03:37.005Z,99.90
2018-06-14T04:04:40.337Z,99.90
2018-06-14T04:05:43.707Z,99.90
2018-06-14T04:06:47.117Z,99.90
2018-06-14T04:07:50.456Z,99.90
2018-06-14T04:08:53.784Z,99.90
2018-06-14T04:09:57.327Z,99.90
2018-06-14T04:11:00.703Z,99.90
2018-06-14T04:12:04.057Z,99.90
2018-06-14T04:13:07.395Z,99.90
2018-06-14T04:14:10.715Z,99.90
2018-06-14T04:15:14.035Z,99.90
2018-06-14T04:16:17.399Z,99.90
2018-06-14T04:17:20.761Z,99.90
2018-06-14T04:18:24.080Z,99.90
2018-06-14T04:19:27.400Z,99.90
2018-06-14T04:20:31.737Z,99.90
2018-06-14T04:21:35.102Z,99.90
2018-06-14T04:22:38.424Z,99.90
2018-06-14T04:23:41.743Z,99.90
2018-06-14T04:24:45.453Z,99.90
2018-06-14T04:25:48.772Z,99.90
2018-06-14T04:26:52.271Z,99.90
2018-06-14T04:27:55.632Z,99.90
2018-06-14T04:28:58.953Z,99.90
2018-06-14T04:30:02.271Z,99.90
2018-06-14T04:31:05.606Z,99.90
2018-06-14T04:32:08.965Z,99.90
2018-06-14T04:33:12.331Z,99.90
2018-06-14T04:34:15.659Z,99.90
2018-06-14T04:35:18.978Z,99.90
2018-06-14T04:36:22.297Z,99.90
2018-06-14T04:37:25.651Z,99.90
2018-06-14T04:38:28.975Z,99.90
2018-06-14T04:39:32.340Z,99.90
2018-06-14T04:40:35.666Z,99.90
2018-06-14T04:41:39.040Z,99.90
2018-06-14T04:42:42.389Z,99.90
2018-06-14T04:43:45.721Z,99.90
2018-06-14T04:44:49.046Z,99.90
2018-06-14T04:45:52.430Z,99.90
2018-06-14T04:46:55.760Z,99.90
2018-06-14T04:47:59.262Z,99.90
2018-06-14T04:49:02.582Z,99.90
2018-06-14T04:50:06.047Z,99.90
2018-06-14T04:51:09.395Z,99.90
2018-06-14T04:52:12.730Z,99.90
2018-06-14T04:53:16.100Z,99.90
2018-06-14T04:54:19.419Z,99.90
2018-06-14T04:55:22.767Z,99.90
2018-06-14T04:56:26.125Z,99.90
2018-06-14T04:57:29.471Z,99.90
2018-06-14T04:58:32.832Z,99.90
2018-06-14T04:59:36.173Z,99.90
2018-06-14T05:00:39.503Z,99.90
2018-06-14T05:01:42.879Z,99.90
2018-06-14T05:02:46.235Z,99.90
2018-06-14T05:03:49.551Z,99.90
2018-06-14T05:04:52.927Z,99.90
2018-06-14T05:06:59.488Z,99.90
2018-06-14T05:08:02.877Z,99.90
2018-06-14T05:09:10.143Z,99.90
2018-06-14T05:10:13.475Z,99.90
2018-06-14T05:11:23.154Z,99.90
2018-06-14T05:12:26.501Z,99.90
2018-06-14T05:13:29.904Z,99.90
2018-06-14T05:14:33.231Z,99.90
2018-06-14T05:15:36.586Z,99.90
2018-06-14T05:16:39.929Z,99.90
2018-06-14T05:17:43.312Z,99.90
2018-06-14T05:18:46.640Z,99.90
2018-06-14T05:19:49.985Z,99.90
2018-06-14T05:20:54.101Z,99.90
2018-06-14T05:21:57.495Z,99.90
2018-06-14T05:23:00.827Z,99.90
2018-06-14T05:24:04.192Z,99.90
2018-06-14T05:25:07.521Z,99.90
2018-06-14T05:26:10.894Z,99.90
2018-06-14T05:27:14.244Z,99.90
2018-06-14T05:28:17.751Z,99.90
2018-06-14T05:29:21.111Z,99.90
2018-06-14T05:30:24.432Z,99.90
2018-06-14T05:31:27.770Z,99.90
2018-06-14T05:32:31.128Z,99.90
2018-06-14T05:33:34.448Z,99.90
2018-06-14T05:34:37.836Z,99.90
2018-06-14T05:35:41.175Z,99.90
2018-06-14T05:36:44.529Z,99.90
2018-06-14T05:37:47.895Z,99.90
2018-06-14T05:38:51.244Z,99.90
2018-06-14T05:39:54.565Z,99.90
2018-06-14T05:40:57.907Z,99.90
2018-06-14T05:42:01.338Z,99.90
2018-06-14T05:43:04.751Z,99.90
2018-06-14T05:44:08.148Z,99.90
2018-06-14T05:45:11.466Z,99.90
2018-06-14T05:46:14.800Z,99.90
2018-06-14T05:47:18.118Z,99.90
2018-06-14T05:48:21.480Z,99.90
2018-06-14T05:49:24.837Z,99.90
2018-06-14T05:50:28.171Z,99.90
2018-06-14T05:51:31.510Z,99.90
2018-06-14T05:52:34.844Z,99.90
2018-06-14T05:53:38.257Z,99.90
2018-06-14T05:54:41.599Z,99.90
2018-06-14T05:55:44.976Z,99.90
2018-06-14T05:56:48.304Z,99.90
2018-06-14T05:57:51.688Z,99.90
2018-06-14T05:58:55.110Z,99.90
2018-06-14T05:59:58.630Z,99.90
2018-06-14T06:01:02.145Z,99.90
2018-06-14T06:02:05.495Z,99.90
2018-06-14T06:03:08.844Z,99.90
2018-06-14T06:04:12.206Z,99.90
2018-06-14T06:05:15.842Z,99.90
2018-06-14T06:06:19.216Z,99.90
2018-06-14T06:07:22.548Z,99.90
2018-06-14T06:08:25.876Z,99.70
2018-06-14T06:09:29.215Z,99.50
2018-06-14T06:10:32.541Z,99.20
2018-06-14T06:11:35.942Z,99.30
2018-06-14T06:12:39.750Z,98.70
2018-06-14T06:13:43.231Z,98.80
2018-06-14T06:14:46.600Z,98.90
2018-06-14T06:15:49.946Z,98.90
2018-06-14T06:16:53.288Z,98.60
2018-06-14T06:17:56.634Z,97.90
2018-06-14T06:18:59.959Z,98.30
2018-06-14T06:20:03.563Z,98.00
2018-06-14T06:21:06.891Z,98.00
2018-06-14T06:22:10.208Z,97.50
2018-06-14T06:23:13.542Z,97.60
2018-06-14T06:24:16.900Z,97.80
2018-06-14T06:25:20.219Z,97.40
2018-06-14T06:26:23.612Z,97.30
2018-06-14T06:27:26.936Z,97.40
2018-06-14T06:28:30.288Z,97.60
2018-06-14T06:29:33.621Z,97.50
2018-06-14T06:30:37.139Z,96.90
2018-06-14T06:31:40.509Z,97.00
2018-06-14T06:32:43.839Z,97.40
2018-06-14T06:33:47.188Z,97.20
2018-06-14T06:34:50.952Z,97.30
2018-06-14T06:35:54.316Z,97.20
2018-06-14T06:36:57.638Z,96.90
2018-06-14T06:38:01.003Z,96.90
2018-06-14T06:39:08.187Z,97.10
2018-06-14T06:40:11.521Z,97.20
2018-06-14T06:41:14.879Z,97.40
2018-06-14T06:42:18.205Z,96.80
2018-06-14T06:43:21.608Z,96.80
2018-06-14T06:44:24.986Z,96.60
2018-06-14T06:45:28.320Z,96.10
2018-06-14T06:46:31.647Z,95.50
2018-06-14T06:47:35.013Z,95.70
2018-06-14T06:48:38.406Z,95.80
2018-06-14T06:49:41.720Z,95.50
2018-06-14T06:50:45.079Z,95.30
2018-06-14T06:51:48.472Z,94.90
2018-06-14T06:52:51.803Z,95.40
2018-06-14T06:53:55.178Z,95.30
2018-06-14T06:54:58.528Z,96.20
2018-06-14T06:56:01.879Z,95.40
2018-06-14T06:57:05.270Z,95.70
2018-06-14T06:58:08.622Z,95.90
2018-06-14T06:59:12.010Z,95.60
2018-06-14T07:00:15.335Z,95.20
2018-06-14T07:01:18.678Z,95.20
2018-06-14T07:02:22.134Z,95.50
2018-06-14T07:03:25.471Z,95.60
2018-06-14T07:04:28.807Z,95.80
2018-06-14T07:05:32.153Z,95.10
2018-06-14T07:06:35.500Z,95.40
2018-06-14T07:07:38.868Z,95.00
2018-06-14T07:08:42.280Z,94.50
2018-06-14T07:09:45.611Z,94.30
2018-06-14T07:10:48.954Z,94.20
2018-06-14T07:11:52.506Z,94.00
2018-06-14T07:12:55.904Z,93.60
2018-06-14T07:13:59.242Z,94.20
2018-06-14T07:15:02.622Z,94.30
2018-06-14T07:16:06.147Z,93.80
2018-06-14T07:17:09.492Z,93.00
2018-06-14T07:18:12.844Z,93.50
2018-06-14T07:19:16.224Z,92.90
2018-06-14T07:20:19.568Z,92.90
2018-06-14T07:21:22.952Z,93.10
2018-06-14T07:22:26.297Z,92.70
2018-06-14T07:23:29.631Z,92.90
2018-06-14T07:24:32.963Z,92.20
2018-06-14T07:25:36.343Z,93.00
2018-06-14T07:26:39.752Z,92.50
2018-06-14T07:27:43.150Z,92.30
2018-06-14T07:28:46.487Z,92.10
2018-06-14T07:29:49.849Z,92.00
2018-06-14T07:30:53.182Z,91.60
2018-06-14T07:31:56.524Z,91.80
2018-06-14T07:32:59.885Z,91.30
2018-06-14T07:34:03.202Z,91.50
2018-06-14T07:35:06.565Z,91.40
2018-06-14T07:36:09.893Z,90.80
2018-06-14T07:37:13.227Z,90.80
2018-06-14T07:38:16.588Z,91.10
2018-06-14T07:39:19.942Z,91.30
2018-06-14T07:40:23.295Z,91.20
2018-06-14T07:41:26.631Z,91.20
2018-06-14T07:42:30.077Z,91.00
2018-06-14T07:43:33.454Z,90.60
2018-06-14T07:44:36.791Z,90.50
2018-06-14T07:45:40.168Z,90.90
2018-06-14T07:46:43.493Z,91.10
2018-06-14T07:47:49.947Z,91.40
2018-06-14T07:48:53.445Z,90.80
2018-06-14T07:49:56.787Z,91.10
2018-06-14T07:51:00.124Z,90.60
2018-06-14T07:52:03.478Z,91.10
2018-06-14T07:54:10.042Z,90.60
2018-06-14T07:55:13.382Z,91.20
2018-06-14T07:56:16.703Z,91.60
2018-06-14T07:57:20.048Z,92.00
2018-06-14T07:58:23.459Z,91.50
2018-06-14T07:59:26.799Z,90.90
2018-06-14T08:00:30.132Z,90.80
2018-06-14T08:01:33.494Z,91.00
2018-06-14T08:02:36.837Z,91.00
2018-06-14T08:03:40.177Z,90.90
2018-06-14T08:04:43.540Z,90.40
2018-06-14T08:05:46.900Z,89.50
2018-06-14T08:06:50.229Z,90.10
2018-06-14T08:07:53.548Z,90.00
2018-06-14T08:08:56.883Z,87.90
2018-06-14T08:10:00.209Z,88.30
2018-06-14T08:11:03.595Z,88.60
2018-06-14T08:12:06.969Z,88.30
2018-06-14T08:13:10.524Z,86.40
2018-06-14T08:14:13.867Z,85.50
2018-06-14T08:15:17.195Z,85.20
2018-06-14T08:16:20.564Z,86.60
2018-06-14T08:17:23.899Z,86.80
2018-06-14T08:18:27.285Z,87.50
2018-06-14T08:19:30.612Z,88.50
2018-06-14T08:20:33.937Z,86.10
2018-06-14T08:21:37.305Z,87.10
2018-06-14T08:22:40.633Z,89.50
2018-06-14T08:23:43.972Z,88.30
2018-06-14T08:24:47.317Z,86.20
2018-06-14T08:25:53.659Z,86.10
2018-06-14T08:26:57.003Z,86.20
2018-06-14T08:28:00.344Z,86.50
2018-06-14T08:29:03.717Z,86.50
2018-06-14T08:30:07.043Z,86.60
2018-06-14T08:31:10.415Z,86.90
2018-06-14T08:32:13.737Z,86.40
2018-06-14T08:33:17.072Z,86.00
2018-06-14T08:35:23.485Z,85.00
2018-06-14T08:36:26.848Z,86.10
2018-06-14T08:37:36.521Z,84.00
2018-06-14T08:38:39.844Z,83.70
2018-06-14T08:39:43.191Z,83.70
2018-06-14T08:40:46.520Z,83.90
2018-06-14T08:41:50.020Z,84.90
2018-06-14T08:42:53.360Z,84.90
2018-06-14T08:43:56.685Z,83.70
2018-06-14T08:45:00.010Z,85.10
2018-06-14T08:46:03.352Z,84.10
2018-06-14T08:47:06.743Z,84.10
2018-06-14T08:48:10.251Z,85.30
2018-06-14T08:49:13.599Z,85.50
2018-06-14T08:52:23.442Z,87.50
2018-06-14T08:53:26.807Z,88.00
2018-06-14T08:54:30.164Z,88.90
2018-06-14T08:55:33.606Z,87.50
2018-06-14T08:56:36.946Z,85.70
2018-06-14T08:57:40.325Z,87.50
2018-06-14T08:58:43.688Z,87.20
2018-06-14T08:59:47.028Z,86.70
2018-06-14T09:00:50.370Z,85.50
2018-06-14T09:01:53.811Z,85.90
2018-06-14T09:02:57.164Z,85.00
2018-06-14T09:04:00.557Z,86.60
2018-06-14T09:05:03.937Z,85.70
2018-06-14T09:06:07.310Z,84.70
2018-06-14T09:07:10.628Z,85.10
2018-06-14T09:08:14.011Z,83.70
2018-06-14T09:09:17.390Z,83.90
2018-06-14T09:10:20.783Z,85.10
2018-06-14T09:11:24.112Z,84.80
2018-06-14T09:12:27.439Z,84.40
2018-06-14T09:13:30.776Z,84.30
2018-06-14T09:14:34.143Z,83.50
2018-06-14T09:16:40.796Z,81.40
2018-06-14T09:17:44.134Z,81.80
2018-06-14T09:18:47.463Z,83.40
2018-06-14T09:19:50.801Z,81.30
2018-06-14T09:20:54.196Z,82.10
2018-06-14T09:21:57.529Z,84.00
2018-06-14T09:23:00.867Z,83.00
2018-06-14T09:24:04.229Z,82.20
2018-06-14T09:25:07.628Z,78.90
2018-06-14T09:26:10.991Z,79.20
2018-06-14T09:27:14.514Z,79.00
2018-06-14T09:28:17.836Z,80.30
2018-06-14T09:29:21.169Z,79.10
2018-06-14T09:30:24.559Z,79.80
2018-06-14T09:31:27.896Z,79.80
2018-06-14T09:32:31.247Z,78.10
2018-06-14T09:33:34.607Z,79.10
2018-06-14T09:34:37.947Z,78.30
2018-06-14T09:35:41.293Z,78.50
2018-06-14T09:36:44.648Z,79.60
2018-06-14T09:37:47.971Z,76.40
2018-06-14T09:38:51.351Z,77.30
2018-06-14T09:39:54.678Z,78.30
2018-06-14T09:40:58.012Z,78.60
2018-06-14T09:42:01.350Z,77.50
2018-06-14T09:43:04.760Z,76.70
2018-06-14T09:44:08.074Z,75.90
2018-06-14T09:45:11.420Z,75.90
2018-06-14T09:46:14.987Z,74.80
2018-06-14T09:47:18.312Z,74.40
2018-06-14T09:48:21.632Z,75.70
2018-06-14T09:49:25.011Z,76.90
2018-06-14T09:50:28.356Z,77.00
2018-06-14T09:51:31.692Z,77.30
2018-06-14T09:52:35.036Z,75.90
2018-06-14T09:53:38.379Z,75.20
2018-06-14T09:54:41.736Z,75.00
2018-06-14T09:55:45.069Z,76.20
2018-06-14T09:56:48.440Z,77.80
2018-06-14T09:57:51.772Z,75.90
2018-06-14T09:58:55.084Z,77.10
2018-06-14T09:59:58.416Z,76.10
2018-06-14T10:01:01.752Z,76.30
2018-06-14T10:02:05.099Z,76.70
2018-06-14T10:03:08.431Z,74.90
2018-06-14T10:04:11.767Z,75.90
2018-06-14T10:05:15.105Z,75.20
2018-06-14T10:06:18.454Z,73.70
2018-06-14T10:07:21.813Z,74.10
2018-06-14T10:08:25.174Z,75.20
2018-06-14T10:09:28.505Z,76.90
2018-06-14T10:10:31.849Z,75.50
2018-06-14T10:11:35.167Z,74.40
2018-06-14T10:12:39.358Z,73.70
2018-06-14T10:14:45.736Z,74.40
2018-06-14T10:15:49.078Z,73.60
2018-06-14T10:16:52.417Z,76.40
2018-06-14T10:17:55.746Z,74.00
2018-06-14T10:18:59.097Z,73.70
2018-06-14T10:20:02.439Z,75.40
2018-06-14T10:22:08.922Z,74.40
2018-06-14T10:23:12.304Z,72.40
2018-06-14T10:24:15.857Z,72.80
2018-06-14T10:25:19.415Z,73.80
2018-06-14T10:26:22.747Z,73.50
2018-06-14T10:27:26.092Z,73.80
2018-06-14T10:29:32.506Z,73.60
2018-06-14T10:30:35.831Z,71.60
2018-06-14T10:31:39.208Z,73.40
2018-06-14T10:32:42.529Z,73.00
2018-06-14T10:33:45.917Z,72.70
2018-06-14T10:34:49.249Z,71.70
2018-06-14T10:35:52.575Z,71.00
2018-06-14T10:36:55.919Z,71.70
2018-06-14T10:37:59.273Z,71.30
2018-06-14T10:39:02.600Z,72.50
2018-06-14T10:40:05.975Z,72.50
2018-06-14T10:41:09.335Z,73.50
2018-06-14T10:42:12.678Z,73.20
2018-06-14T10:43:16.019Z,73.50
2018-06-14T10:44:19.387Z,73.20
2018-06-14T10:45:22.696Z,73.20
2018-06-14T10:46:26.050Z,73.10
2018-06-14T10:47:29.379Z,73.70
2018-06-14T10:48:32.707Z,70.30
2018-06-14T10:49:36.051Z,69.10
2018-06-14T10:50:39.370Z,69.80
2018-06-14T10:51:42.728Z,70.00
2018-06-14T10:52:46.063Z,70.00
2018-06-14T10:53:49.380Z,71.80
2018-06-14T10:54:52.700Z,70.90
2018-06-14T10:55:56.048Z,71.50
2018-06-14T10:56:59.400Z,71.30
2018-06-14T10:58:05.135Z,71.50
2018-06-14T10:59:12.436Z,70.70
2018-06-14T11:00:19.613Z,71.20
2018-06-14T11:01:27.109Z,71.10
2018-06-14T11:02:35.198Z,70.20
2018-06-14T11:03:42.150Z,72.20
2018-06-14T11:04:49.837Z,72.30
2018-06-14T11:05:56.762Z,71.50
2018-06-14T11:07:04.301Z,70.50
2018-06-14T11:08:11.704Z,69.30
2018-06-14T11:09:18.948Z,69.50
2018-06-14T11:10:26.733Z,70.30
2018-06-14T11:11:34.657Z,68.80
2018-06-14T11:12:41.697Z,68.10
2018-06-14T11:13:48.797Z,66.90
2018-06-14T11:14:56.260Z,68.70
2018-06-14T11:16:04.049Z,69.80
2018-06-14T11:17:11.139Z,69.40
2018-06-14T11:18:19.107Z,69.30
2018-06-14T11:19:26.077Z,68.80
2018-06-14T11:20:33.660Z,68.50
2018-06-14T11:21:41.142Z,68.50
2018-06-14T11:22:49.061Z,68.30
2018-06-14T11:23:56.438Z,67.40
2018-06-14T11:25:04.713Z,66.60
2018-06-14T11:26:12.637Z,66.80
2018-06-14T11:27:20.805Z,67.30
2018-06-14T11:28:28.696Z,66.10
2018-06-14T11:29:36.382Z,64.90
2018-06-14T11:30:43.681Z,65.80
2018-06-14T11:31:51.037Z,68.80
2018-06-14T11:32:58.520Z,67.30
2018-06-14T11:34:06.936Z,67.10
2018-06-14T11:35:14.213Z,66.90
2018-06-14T11:36:21.694Z,66.60
2018-06-14T11:37:28.854Z,67.10
2018-06-14T11:38:36.464Z,67.30
2018-06-14T11:39:44.330Z,66.80
2018-06-14T11:40:52.656Z,65.50
2018-06-14T11:42:00.431Z,65.40
2018-06-14T11:43:08.004Z,67.50
2018-06-14T11:44:15.178Z,65.80
2018-06-14T11:45:22.876Z,66.40
2018-06-14T11:46:30.347Z,66.90
2018-06-14T11:47:37.635Z,66.80
2018-06-14T11:48:45.002Z,66.00
2018-06-14T11:49:52.619Z,66.40
2018-06-14T11:50:59.762Z,65.80
2018-06-14T11:52:07.276Z,66.10
2018-06-14T11:53:13.732Z,64.30
2018-06-14T11:54:21.388Z,66.70
2018-06-14T11:55:28.163Z,67.50
2018-06-14T11:56:35.871Z,68.60
2018-06-14T11:57:43.013Z,68.30
2018-06-14T11:58:50.524Z,67.40
2018-06-14T11:59:58.286Z,66.50
2018-06-14T12:01:05.794Z,65.30
2018-06-14T12:02:13.250Z,65.00
2018-06-14T12:03:20.744Z,66.10
2018-06-14T12:04:28.111Z,65.60
2018-06-14T12:05:31.679Z,67.20
2018-06-14T12:06:35.012Z,66.10
2018-06-14T12:07:38.359Z,66.10
2018-06-14T12:08:41.688Z,66.90
2018-06-14T12:09:45.129Z,65.50
2018-06-14T12:10:48.464Z,65.50
2018-06-14T12:11:51.845Z,66.20
2018-06-14T12:12:55.192Z,66.00
2018-06-14T12:13:58.531Z,66.10
2018-06-14T12:15:01.954Z,66.70
2018-06-14T12:16:05.383Z,66.20
2018-06-14T12:17:09.044Z,66.20
2018-06-14T12:18:12.353Z,66.80
2018-06-14T12:19:15.715Z,64.70
2018-06-14T12:20:19.100Z,64.90
2018-06-14T12:21:22.481Z,64.40
2018-06-14T12:22:25.822Z,64.50
2018-06-14T12:23:29.275Z,65.60
2018-06-14T12:24:32.599Z,66.50
2018-06-14T12:25:35.968Z,67.00
2018-06-14T12:26:39.292Z,65.90
2018-06-14T12:27:42.673Z,65.40
2018-06-14T12:28:46.001Z,66.30
2018-06-14T12:29:49.335Z,64.60
2018-06-14T12:30:52.731Z,65.60
2018-06-14T12:31:56.072Z,65.00
2018-06-14T12:32:59.491Z,64.40
2018-06-14T12:34:02.848Z,66.40
2018-06-14T12:35:06.168Z,64.40
2018-06-14T12:36:09.531Z,65.30
2018-06-14T12:37:12.862Z,65.10
2018-06-14T12:38:16.205Z,63.50
2018-06-14T12:39:19.668Z,64.50
2018-06-14T12:40:23.028Z,65.40
2018-06-14T12:42:29.671Z,62.90
2018-06-14T12:43:33.047Z,65.10
2018-06-14T12:44:36.421Z,63.40
2018-06-14T12:45:39.741Z,63.10
2018-06-14T12:46:43.079Z,64.40
2018-06-14T12:47:46.413Z,64.10
2018-06-14T12:48:49.791Z,64.20
2018-06-14T12:49:53.152Z,64.50
2018-06-14T12:50:56.491Z,64.60
2018-06-14T12:53:02.873Z,63.10
2018-06-14T12:54:06.260Z,62.80
2018-06-14T12:55:09.596Z,62.80
2018-06-14T12:56:12.924Z,63.70
2018-06-14T12:57:16.256Z,63.30
2018-06-14T12:58:25.327Z,64.00
2018-06-14T12:59:33.420Z,65.60
2018-06-14T13:00:41.927Z,65.00
2018-06-14T13:01:50.947Z,64.90
2018-06-14T13:02:58.914Z,64.00
2018-06-14T13:04:07.752Z,63.70
2018-06-14T13:05:16.030Z,65.00
2018-06-14T13:06:23.717Z,64.60
2018-06-14T13:07:32.018Z,63.70
2018-06-14T13:08:40.319Z,63.10
2018-06-14T13:09:48.647Z,63.30
2018-06-14T13:10:56.640Z,63.60
2018-06-14T13:12:05.847Z,63.20
2018-06-14T13:13:13.755Z,63.40
2018-06-14T13:14:21.415Z,65.50
2018-06-14T13:15:29.228Z,63.80
2018-06-14T13:16:37.838Z,64.00
2018-06-14T13:17:46.320Z,64.70
2018-06-14T13:18:54.444Z,63.10
2018-06-14T13:20:02.739Z,62.90
2018-06-14T13:21:10.635Z,63.00
2018-06-14T13:22:18.294Z,63.50
2018-06-14T13:23:26.094Z,63.20
2018-06-14T13:24:42.404Z,63.70
2018-06-14T13:25:51.211Z,64.20
2018-06-14T13:26:58.885Z,63.00
2018-06-14T13:28:07.226Z,64.40
2018-06-14T13:29:16.010Z,64.30
2018-06-14T13:30:24.588Z,63.80
2018-06-14T13:31:32.278Z,63.70
2018-06-14T13:32:40.271Z,62.60
2018-06-14T13:33:48.307Z,64.40
2018-06-14T13:34:56.163Z,62.50
2018-06-14T13:36:05.302Z,63.20
2018-06-14T13:37:13.079Z,61.90
2018-06-14T13:38:21.057Z,62.30
2018-06-14T13:39:29.860Z,62.30
2018-06-14T13:40:37.356Z,62.00
2018-06-14T13:41:45.687Z,63.80
2018-06-14T13:42:53.445Z,64.20
2018-06-14T13:44:01.746Z,63.60
2018-06-14T13:45:09.843Z,63.30
2018-06-14T13:46:18.172Z,62.70
2018-06-14T13:47:27.468Z,64.90
2018-06-14T13:48:35.258Z,62.80
2018-06-14T13:49:43.379Z,62.00
2018-06-14T13:50:51.856Z,62.40
2018-06-14T13:51:59.862Z,62.30
2018-06-14T13:53:07.742Z,61.30
2018-06-14T13:54:16.658Z,59.80
2018-06-14T13:55:24.372Z,60.70
2018-06-14T13:56:33.054Z,61.80
2018-06-14T13:57:40.129Z,62.00
2018-06-14T13:58:47.915Z,62.90
2018-06-14T13:59:56.042Z,63.40
2018-06-14T14:01:03.570Z,63.00
2018-06-14T14:02:13.125Z,62.00
2018-06-14T14:03:21.277Z,62.00
2018-06-14T14:04:30.252Z,61.20
2018-06-14T14:05:33.995Z,62.10
2018-06-14T14:06:37.617Z,61.60
2018-06-14T14:07:41.257Z,60.40
2018-06-14T14:08:44.898Z,59.50
2018-06-14T14:09:48.554Z,60.40
2018-06-14T14:10:52.202Z,61.00
2018-06-14T14:11:55.829Z,60.50
2018-06-14T14:12:59.461Z,60.90
2018-06-14T14:14:03.044Z,60.30
2018-06-14T14:15:06.744Z,61.90
2018-06-14T14:16:10.384Z,60.80
2018-06-14T14:17:14.124Z,61.20
2018-06-14T14:18:17.746Z,61.30
2018-06-14T14:20:24.680Z,60.80
2018-06-14T14:21:28.343Z,61.50
2018-06-14T14:22:31.951Z,62.00
2018-06-14T14:23:35.610Z,62.30
2018-06-14T14:24:39.244Z,62.50
2018-06-14T14:25:42.876Z,61.00
2018-06-14T14:26:46.556Z,61.80
2018-06-14T14:27:50.207Z,62.00
2018-06-14T14:28:53.828Z,62.40
2018-06-14T14:29:57.501Z,61.30
2018-06-14T14:31:01.141Z,61.40
2018-06-14T14:32:04.882Z,60.40
2018-06-14T14:33:08.525Z,61.40
2018-06-14T14:34:12.119Z,61.90
2018-06-14T14:35:15.784Z,61.30
2018-06-14T14:36:19.424Z,62.10
2018-06-14T14:37:23.152Z,61.30
2018-06-14T14:38:26.792Z,60.90
2018-06-14T14:39:30.471Z,60.90
2018-06-14T14:40:34.127Z,60.00
2018-06-14T14:41:37.777Z,58.90
2018-06-14T14:42:41.419Z,59.40
2018-06-14T14:43:45.080Z,59.60
2018-06-14T14:44:48.704Z,59.80
2018-06-14T14:45:52.316Z,61.00
2018-06-14T14:46:56.018Z,61.70
2018-06-14T14:47:59.685Z,60.80
2018-06-14T14:49:03.300Z,60.50
2018-06-14T14:50:06.913Z,60.30
2018-06-14T14:51:10.535Z,62.10
2018-06-14T14:52:14.225Z,60.00